createdAt,value
2018-05-12T00:01:58.953Z,85.40
2018-05-12T00:04:26.451Z,85.30
2018-05-12T00:06:54.719Z,85.30
2018-05-12T00:09:22.208Z,85.30
2018-05-12T00:11:50.456Z,85.50
2018-05-12T00:14:17.959Z,85.50
2018-05-12T00:16:45.442Z,85.60
2018-05-12T00:19:12.948Z,85.60
2018-05-12T00:21:41.202Z,85.80
2018-05-12T00:24:08.697Z,85.70
2018-05-12T00:26:36.181Z,85.70
2018-05-12T00:29:03.668Z,85.90
2018-05-12T00:31:31.161Z,86.50
2018-05-12T00:33:59.405Z,87.50
2018-05-12T00:36:26.905Z,87.50
2018-05-12T00:38:55.150Z,88.00
2018-05-12T00:41:22.640Z,88.00
2018-05-12T00:43:50.893Z,87.50
2018-05-12T00:46:18.389Z,87.30
2018-05-12T00:48:46.635Z,87.40
2018-05-12T00:51:14.913Z,88.10
2018-05-12T00:53:42.393Z,87.30
2018-05-12T00:56:10.656Z,87.70
2018-05-12T00:58:38.911Z,87.90
2018-05-12T01:01:06.419Z,87.50
2018-05-12T01:03:33.910Z,87.80
2018-05-12T01:06:01.405Z,87.70
2018-05-12T01:08:28.910Z,87.50
2018-05-12T01:10:56.412Z,87.60
2018-05-12T01:13:23.895Z,87.50
2018-05-12T01:15:52.149Z,88.80
2018-05-12T01:18:19.623Z,88.70
2018-05-12T01:20:47.124Z,89.10
2018-05-12T01:23:14.593Z,89.20
2018-05-12T01:25:42.089Z,89.40
2018-05-12T01:28:09.566Z,89.60
2018-05-12T01:30:37.829Z,90.20
2018-05-12T01:33:05.310Z,90.20
2018-05-12T01:35:33.570Z,90.20
2018-05-12T01:38:01.821Z,90.20
2018-05-12T01:40:29.324Z,90.10
2018-05-12T01:42:57.574Z,90.20
2018-05-12T01:45:25.049Z,90.10
2018-05-12T01:47:53.304Z,90.70
2018-05-12T01:50:20.782Z,90.60
2018-05-12T01:52:49.782Z,90.60
2018-05-12T01:55:18.020Z,90.80
2018-05-12T01:57:45.528Z,90.80
2018-05-12T02:00:13.765Z,90.50
2018-05-12T02:02:41.261Z,90.50
2018-05-12T02:05:09.507Z,90.40
2018-05-12T02:07:36.993Z,90.40
2018-05-12T02:10:05.239Z,90.50
2018-05-12T02:12:32.726Z,90.50
2018-05-12T02:15:00.969Z,90.40
2018-05-12T02:17:28.463Z,90.30
2018-05-12T02:19:56.712Z,90.70
2018-05-12T02:22:24.201Z,90.70
2018-05-12T02:24:52.465Z,90.70
2018-05-12T02:27:20.729Z,91.10
2018-05-12T02:29:48.208Z,90.80
2018-05-12T02:32:16.469Z,91.50
2018-05-12T02:34:43.949Z,91.50
2018-05-12T02:37:12.205Z,91.40
2018-05-12T02:39:39.676Z,91.30
2018-05-12T02:42:07.939Z,91.50
2018-05-12T02:44:35.423Z,91.50
2018-05-12T02:47:03.687Z,91.40
2018-05-12T02:49:31.939Z,91.30
2018-05-12T02:52:00.952Z,91.00
2018-05-12T02:54:29.213Z,90.90
2018-05-12T02:56:56.709Z,90.80
2018-05-12T02:59:24.967Z,90.80
2018-05-12T03:01:53.216Z,91.00
2018-05-12T03:04:20.714Z,90.70
2018-05-12T03:06:48.961Z,90.60
2018-05-12T03:09:16.462Z,90.90
2018-05-12T03:11:44.712Z,90.50
2018-05-12T03:14:12.210Z,90.50
2018-05-12T03:16:39.694Z,90.60
2018-05-12T03:19:07.184Z,90.70
2018-05-12T03:21:34.679Z,90.80
2018-05-12T03:24:02.932Z,91.00
2018-05-12T03:26:31.178Z,91.30
2018-05-12T03:28:58.674Z,91.30
2018-05-12T03:31:26.921Z,91.90
2018-05-12T03:33:54.414Z,91.40
2018-05-12T03:36:22.661Z,91.80
2018-05-12T03:38:50.147Z,91.80
2018-05-12T03:41:18.435Z,91.80
2018-05-12T03:43:46.689Z,91.80
2018-05-12T03:46:14.169Z,91.80
2018-05-12T03:48:42.429Z,91.90
2018-05-12T03:51:11.409Z,92.10
2018-05-12T03:53:38.905Z,92.50
2018-05-12T03:56:06.395Z,92.00
2018-05-12T03:58:33.889Z,92.00
2018-05-12T04:01:01.369Z,92.00
2018-05-12T04:03:29.634Z,91.90
2018-05-12T04:06:08.829Z,91.90
2018-05-12T04:08:48.165Z,91.90
2018-05-12T04:11:27.496Z,91.80
2018-05-12T04:13:54.989Z,91.90
2018-05-12T04:16:22.470Z,92.00
2018-05-12T04:18:50.730Z,92.20
2018-05-12T04:21:18.206Z,92.10
2018-05-12T04:23:46.483Z,92.60
2018-05-12T04:26:14.726Z,93.00
2018-05-12T04:28:42.206Z,93.00
2018-05-12T04:31:11.313Z,93.10
2018-05-12T04:33:39.561Z,93.20
2018-05-12T04:36:07.057Z,93.10
2018-05-12T04:38:35.310Z,93.10
2018-05-12T04:41:02.805Z,93.10
2018-05-12T04:43:31.045Z,93.60
2018-05-12T04:45:58.537Z,93.60
2018-05-12T04:48:26.838Z,93.50
2018-05-12T04:50:54.337Z,93.50
2018-05-12T04:53:21.809Z,93.50
2018-05-12T04:55:50.822Z,93.60
2018-05-12T04:58:19.061Z,93.60
2018-05-12T05:00:47.539Z,93.60
2018-05-12T05:03:15.022Z,93.60
2018-05-12T05:05:42.513Z,93.30
2018-05-12T05:08:10.028Z,94.00
2018-05-12T05:10:37.513Z,94.00
2018-05-12T05:13:05.795Z,94.00
2018-05-12T05:15:33.341Z,93.90
2018-05-12T05:18:00.830Z,94.50
2018-05-12T05:20:29.089Z,94.10
2018-05-12T05:22:57.343Z,94.00
2018-05-12T05:25:24.841Z,93.90
2018-05-12T05:27:52.318Z,93.90
2018-05-12T05:30:19.814Z,93.70
2018-05-12T05:32:47.305Z,93.40
2018-05-12T05:35:15.652Z,92.90
2018-05-12T05:37:43.832Z,92.70
2018-05-12T05:40:11.339Z,92.60
2018-05-12T05:42:38.821Z,92.40
2018-05-12T05:45:06.318Z,92.20
2018-05-12T05:47:33.799Z,92.10
2018-05-12T05:50:02.071Z,91.60
2018-05-12T05:52:30.342Z,91.00
2018-05-12T05:54:58.611Z,90.50
2018-05-12T05:57:26.106Z,90.50
2018-05-12T05:59:53.598Z,90.30
2018-05-12T06:02:21.099Z,90.00
2018-05-12T06:07:42.549Z,88.00
2018-05-12T06:10:10.792Z,86.30
2018-05-12T06:12:38.297Z,86.20
2018-05-12T06:15:05.778Z,84.40
2018-05-12T06:17:33.284Z,84.20
2018-05-12T06:20:00.757Z,84.10
2018-05-12T06:22:29.037Z,83.40
2018-05-12T06:24:57.286Z,82.90
2018-05-12T06:27:24.790Z,82.80
2018-05-12T06:29:52.278Z,82.40
2018-05-12T06:32:19.773Z,81.40
2018-05-12T06:34:48.030Z,79.00
2018-05-12T06:37:15.533Z,79.40
2018-05-12T06:39:43.779Z,78.40
2018-05-12T06:42:11.273Z,78.40
2018-05-12T06:44:39.527Z,78.00
2018-05-12T06:47:08.534Z,76.90
2018-05-12T06:49:36.776Z,76.60
2018-05-12T06:52:04.277Z,76.50
2018-05-12T06:54:32.522Z,74.40
2018-05-12T06:57:00.025Z,74.40
2018-05-12T06:59:27.509Z,74.40
2018-05-12T07:01:55.005Z,72.70
2018-05-12T07:04:22.485Z,72.00
2018-05-12T07:06:50.751Z,71.10
2018-05-12T07:09:19.011Z,71.70
2018-05-12T07:11:46.509Z,71.60
2018-05-12T07:14:14.005Z,70.00
2018-05-12T07:16:41.489Z,69.00
2018-05-12T07:19:08.989Z,69.30
2018-05-12T07:21:37.242Z,67.60
2018-05-12T07:24:05.501Z,69.10
2018-05-12T07:26:32.985Z,68.40
2018-05-12T07:29:01.249Z,66.80
2018-05-12T07:31:28.734Z,66.80
2018-05-12T07:33:57.007Z,66.00
2018-05-12T07:36:25.256Z,65.20
2018-05-12T07:38:52.767Z,65.00
2018-05-12T07:41:20.249Z,63.20
2018-05-12T07:43:47.749Z,62.60
2018-05-12T07:46:16.006Z,62.90
2018-05-12T07:48:43.505Z,62.90
2018-05-12T07:51:10.993Z,61.80
2018-05-12T07:53:38.488Z,61.70
2018-05-12T07:56:05.969Z,61.20
2018-05-12T07:58:34.257Z,60.90
2018-05-12T08:01:02.510Z,60.90
2018-05-12T08:03:30.028Z,60.90
2018-05-12T08:05:58.309Z,60.70
2018-05-12T08:08:25.807Z,59.40
2018-05-12T08:10:53.293Z,60.00
2018-05-12T08:13:21.558Z,59.60
2018-05-12T08:15:49.807Z,58.60
2018-05-12T08:18:17.308Z,58.60
2018-05-12T08:20:44.793Z,57.00
2018-05-12T08:23:12.294Z,55.70
2018-05-12T08:25:39.781Z,57.20
2018-05-12T08:28:07.297Z,55.90
2018-05-12T08:30:34.780Z,57.70
2018-05-12T08:33:02.270Z,57.70
2018-05-12T08:35:29.772Z,57.40
2018-05-12T08:37:57.266Z,57.10
2018-05-12T08:40:25.678Z,57.10
2018-05-12T08:42:54.749Z,56.20
2018-05-12T08:45:22.263Z,56.20
2018-05-12T08:47:49.757Z,55.20
2018-05-12T08:50:18.149Z,53.60
2018-05-12T08:52:46.399Z,52.60
2018-05-12T08:55:14.746Z,53.50
2018-05-12T08:57:42.205Z,53.40
2018-05-12T09:00:09.709Z,52.40
2018-05-12T09:02:37.961Z,52.90
2018-05-12T09:05:05.548Z,52.80
2018-05-12T09:07:33.803Z,51.40
2018-05-12T09:10:01.312Z,51.20
2018-05-12T09:12:28.801Z,51.10
2018-05-12T09:14:56.309Z,51.70
2018-05-12T09:17:24.577Z,50.20
2018-05-12T09:19:52.862Z,48.20
2018-05-12T09:22:20.369Z,48.10
2018-05-12T09:24:47.881Z,48.70
2018-05-12T09:27:16.140Z,49.10
2018-05-12T09:29:43.654Z,49.10
2018-05-12T09:32:11.141Z,49.40
2018-05-12T09:34:38.653Z,50.30
2018-05-12T09:37:06.142Z,49.70
2018-05-12T09:39:33.662Z,49.70
2018-05-12T09:42:01.153Z,49.80
2018-05-12T09:44:28.661Z,48.80
2018-05-12T09:46:56.145Z,48.20
2018-05-12T09:49:23.650Z,47.20
2018-05-12T09:51:51.125Z,45.50
2018-05-12T09:54:18.633Z,45.10
2018-05-12T09:56:46.114Z,45.00
2018-05-12T09:59:13.598Z,46.70
2018-05-12T10:01:41.094Z,46.40
2018-05-12T10:04:09.345Z,44.30
2018-05-12T10:06:36.841Z,44.30
2018-05-12T10:09:06.049Z,44.80
2018-05-12T10:11:33.545Z,45.00
2018-05-12T10:14:01.021Z,44.00
2018-05-12T10:16:28.532Z,42.40
2018-05-12T10:18:56.048Z,44.00
2018-05-12T10:21:24.309Z,44.70
2018-05-12T10:23:51.804Z,44.70
2018-05-12T10:26:20.113Z,45.50
2018-05-12T10:28:48.333Z,47.10
2018-05-12T10:31:15.839Z,47.10
2018-05-12T10:33:43.332Z,46.50
2018-05-12T10:36:10.833Z,46.50
2018-05-12T10:38:39.085Z,47.20
2018-05-12T10:41:06.583Z,47.10
2018-05-12T10:43:34.078Z,46.80
2018-05-12T10:46:02.118Z,46.80
2018-05-12T10:48:29.605Z,46.50
2018-05-12T10:50:57.105Z,46.80
2018-05-12T10:53:24.590Z,45.90
2018-05-12T10:55:52.089Z,46.40
2018-05-12T10:58:19.577Z,46.60
2018-05-12T11:00:47.857Z,47.20
2018-05-12T11:03:15.341Z,47.10
2018-05-12T11:05:43.697Z,47.60
2018-05-12T11:08:11.181Z,47.50
2018-05-12T11:10:39.446Z,47.20
2018-05-12T11:13:07.697Z,46.30
2018-05-12T11:15:35.204Z,46.20
2018-05-12T11:18:02.697Z,48.00
2018-05-12T11:20:30.201Z,46.90
2018-05-12T11:22:58.472Z,46.70
2018-05-12T11:25:26.723Z,46.40
2018-05-12T11:27:54.221Z,46.30
2018-05-12T11:30:22.470Z,46.10
2018-05-12T11:32:49.975Z,46.00
2018-05-12T11:35:17.459Z,46.90
2018-05-12T11:37:44.970Z,46.00
2018-05-12T11:40:13.218Z,45.00
2018-05-12T11:42:40.718Z,45.00
2018-05-12T11:45:08.201Z,44.00
2018-05-12T11:47:35.700Z,44.40
2018-05-12T11:50:03.797Z,43.90
2018-05-12T11:52:32.057Z,43.90
2018-05-12T11:55:00.313Z,43.30
2018-05-12T11:57:27.808Z,43.20
2018-05-12T11:59:56.057Z,42.90
2018-05-12T12:02:23.563Z,42.80
2018-05-12T12:04:51.039Z,43.10
2018-05-12T12:07:18.538Z,43.20
2018-05-12T12:09:46.021Z,42.90
2018-05-12T12:12:14.281Z,42.80
2018-05-12T12:14:41.769Z,42.80
2018-05-12T12:17:10.039Z,42.10
2018-05-12T12:19:38.285Z,42.10
2018-05-12T12:22:05.782Z,42.10
2018-05-12T12:24:33.277Z,42.30
2018-05-12T12:27:00.772Z,42.00
2018-05-12T12:29:28.253Z,42.70
2018-05-12T12:31:56.521Z,42.20
2018-05-12T12:34:24.769Z,42.30
2018-05-12T12:36:53.038Z,42.60
2018-05-12T12:39:20.521Z,42.60
2018-05-12T12:41:48.028Z,42.30
2018-05-12T12:44:15.513Z,42.80
2018-05-12T12:46:43.005Z,41.90
2018-05-12T12:49:10.498Z,41.10
2018-05-12T12:51:38.023Z,41.70
2018-05-12T12:54:05.494Z,42.00
2018-05-12T12:56:33.741Z,41.40
2018-05-12T12:59:01.238Z,41.30
2018-05-12T13:01:29.476Z,41.10
2018-05-12T13:03:56.971Z,41.00
2018-05-12T13:06:25.210Z,38.80
2018-05-12T13:08:52.705Z,38.80
2018-05-12T13:11:20.979Z,39.90
2018-05-12T13:13:49.238Z,40.20
2018-05-12T13:16:16.722Z,40.20
2018-05-12T13:18:44.981Z,39.30
2018-05-12T13:21:12.462Z,39.30
2018-05-12T13:23:39.968Z,39.10
2018-05-12T13:26:07.440Z,38.80
2018-05-12T13:28:34.937Z,38.70
2018-05-12T13:31:03.172Z,40.20
2018-05-12T13:33:30.722Z,40.20
2018-05-12T13:35:58.165Z,39.60
2018-05-12T13:38:25.662Z,39.50
2018-05-12T13:40:53.142Z,38.50
2018-05-12T13:43:21.407Z,40.10
2018-05-12T13:45:49.303Z,40.00
2018-05-12T13:48:16.797Z,40.10
2018-05-12T13:50:44.280Z,39.20
2018-05-12T13:53:11.778Z,38.60
2018-05-12T13:55:39.287Z,39.70
2018-05-12T13:58:06.781Z,37.80
2018-05-12T14:00:35.025Z,38.80
2018-05-12T14:03:02.522Z,38.70
2018-05-12T14:05:30.773Z,38.10
2018-05-12T14:07:58.274Z,38.10
2018-05-12T14:10:25.758Z,37.90
2018-05-12T14:12:53.237Z,38.10
2018-05-12T14:15:20.735Z,39.10
2018-05-12T14:17:49.011Z,36.30
2018-05-12T14:20:16.525Z,36.30
2018-05-12T14:22:44.006Z,37.60
2018-05-12T14:25:11.510Z,37.20
2018-05-12T14:27:38.999Z,36.50
2018-05-12T14:30:06.499Z,36.50
2018-05-12T14:32:34.758Z,37.30
2018-05-12T14:35:02.257Z,37.30
2018-05-12T14:37:29.738Z,37.40
2018-05-12T14:39:57.240Z,37.70
2018-05-12T14:42:24.720Z,36.50
2018-05-12T14:44:52.982Z,36.70
2018-05-12T14:47:20.458Z,36.60
2018-05-12T14:49:48.712Z,37.30
2018-05-12T14:52:16.195Z,37.20
2018-05-12T14:54:44.465Z,37.70
2018-05-12T14:57:12.710Z,36.20
2018-05-12T14:59:40.210Z,36.10
2018-05-12T15:02:08.460Z,36.70
2018-05-12T15:04:36.040Z,36.70
2018-05-12T15:07:04.293Z,35.50
2018-05-12T15:09:31.794Z,35.40
2018-05-12T15:11:59.289Z,35.60
2018-05-12T15:14:26.797Z,35.70
2018-05-12T15:16:55.037Z,35.50
2018-05-12T15:19:22.537Z,35.40
2018-05-12T15:21:50.776Z,35.30
2018-05-12T15:24:18.269Z,35.30
2018-05-12T15:26:46.529Z,35.30
2018-05-12T15:29:14.029Z,35.30
2018-05-12T15:31:41.515Z,35.00
2018-05-12T15:34:09.009Z,36.00
2018-05-12T15:36:36.490Z,34.90
2018-05-12T15:39:04.754Z,35.70
2018-05-12T15:41:32.234Z,35.60
2018-05-12T15:44:00.521Z,35.00
2018-05-12T15:46:28.013Z,35.00
2018-05-12T15:48:55.494Z,36.20
2018-05-12T15:51:22.993Z,36.30
2018-05-12T15:53:50.468Z,35.80
2018-05-12T15:56:17.963Z,35.90
2018-05-12T15:58:45.453Z,35.60
2018-05-12T16:01:13.712Z,35.30
2018-05-12T16:03:41.202Z,35.30
2018-05-12T16:06:09.467Z,35.90
2018-05-12T16:08:37.708Z,35.90
2018-05-12T16:11:05.206Z,35.90
2018-05-12T16:13:33.461Z,36.50
2018-05-12T16:16:00.953Z,36.50
2018-05-12T16:18:28.441Z,36.90
2018-05-12T16:20:55.945Z,36.90
2018-05-12T16:23:24.217Z,37.30
2018-05-12T16:25:51.778Z,36.90
2018-05-12T16:28:19.206Z,37.90
2018-05-12T16:30:46.700Z,37.30
2018-05-12T16:33:14.177Z,37.20
2018-05-12T16:35:42.437Z,37.00
2018-05-12T16:38:09.941Z,37.00
2018-05-12T16:40:37.433Z,37.00
2018-05-12T16:43:04.917Z,37.30
2018-05-12T16:45:33.189Z,37.20
2018-05-12T16:48:00.665Z,37.10
2018-05-12T16:50:28.925Z,37.80
2018-05-12T16:52:57.185Z,37.10
2018-05-12T16:55:24.681Z,37.00
2018-05-12T16:57:52.925Z,37.10
2018-05-12T17:00:20.421Z,37.00
2018-05-12T17:02:48.661Z,37.00
2018-05-12T17:05:16.157Z,36.90
2018-05-12T17:07:43.649Z,36.70
2018-05-12T17:10:11.135Z,37.00
2018-05-12T17:12:38.633Z,37.10
2018-05-12T17:15:06.882Z,36.60
2018-05-12T17:17:34.376Z,36.50
2018-05-12T17:20:01.860Z,36.90
2018-05-12T17:22:29.368Z,36.40
2018-05-12T17:24:56.854Z,36.50
2018-05-12T17:27:25.117Z,36.90
2018-05-12T17:29:53.437Z,37.10
2018-05-12T17:32:20.869Z,37.10
2018-05-12T17:34:48.349Z,37.90
2018-05-12T17:37:15.850Z,37.30
2018-05-12T17:39:43.320Z,37.50
2018-05-12T17:42:11.586Z,37.80
2018-05-12T17:44:39.069Z,37.80
2018-05-12T17:47:07.336Z,38.80
2018-05-12T17:49:35.585Z,39.10
2018-05-12T17:52:03.086Z,38.90
2018-05-12T17:54:30.569Z,38.80
2018-05-12T17:56:58.069Z,39.20
2018-05-12T17:59:25.557Z,39.30
2018-05-12T18:01:53.825Z,39.50
2018-05-12T18:04:22.065Z,39.60
2018-05-12T18:06:49.576Z,39.50
2018-05-12T18:09:17.829Z,39.60
2018-05-12T18:11:45.337Z,39.60
2018-05-12T18:14:12.818Z,39.80
2018-05-12T18:16:40.326Z,40.10
2018-05-12T18:19:08.572Z,40.70
2018-05-12T18:21:36.069Z,40.60
2018-05-12T18:24:04.473Z,40.80
2018-05-12T18:26:31.984Z,40.70
2018-05-12T18:28:59.468Z,41.10
2018-05-12T18:31:27.052Z,41.10
2018-05-12T18:33:54.541Z,41.50
2018-05-12T18:36:22.041Z,41.40
2018-05-12T18:38:50.317Z,41.70
2018-05-12T18:41:18.571Z,42.10
2018-05-12T18:43:46.096Z,42.00
2018-05-12T18:46:13.581Z,43.10
2018-05-12T18:48:41.087Z,42.40
2018-05-12T18:51:08.576Z,42.70
2018-05-12T18:53:36.076Z,43.60
2018-05-12T18:56:03.563Z,42.10
2018-05-12T18:58:31.069Z,43.10
2018-05-12T19:00:58.560Z,43.70
2018-05-12T19:03:26.841Z,44.70
2018-05-12T19:05:55.105Z,45.20
2018-05-12T19:08:23.444Z,45.50
2018-05-12T19:10:51.653Z,45.80
2018-05-12T19:13:19.164Z,45.70
2018-05-12T19:15:46.640Z,46.40
2018-05-12T19:18:14.146Z,46.80
2018-05-12T19:20:42.401Z,47.60
2018-05-12T19:23:09.923Z,47.50
2018-05-12T19:25:37.481Z,48.00
2018-05-12T19:28:04.977Z,48.20
2018-05-12T19:30:32.465Z,48.10
2018-05-12T19:33:00.737Z,48.60
2018-05-12T19:35:28.989Z,48.80
2018-05-12T19:37:56.477Z,48.70
2018-05-12T19:40:24.734Z,49.00
2018-05-12T19:42:52.230Z,49.00
2018-05-12T19:45:19.715Z,48.90
2018-05-12T19:47:47.225Z,49.00
2018-05-12T19:50:14.701Z,49.10
2018-05-12T19:52:42.964Z,49.60
2018-05-12T19:55:11.950Z,49.80
2018-05-12T19:57:39.464Z,49.80
2018-05-12T20:00:06.948Z,51.10
2018-05-12T20:02:34.439Z,50.50
2018-05-12T20:05:02.690Z,50.40
2018-05-12T20:07:30.184Z,50.30
2018-05-12T20:09:58.442Z,50.80
2018-05-12T20:12:25.946Z,50.60
2018-05-12T20:14:53.426Z,50.30
2018-05-12T20:17:20.908Z,50.40
2018-05-12T20:19:48.410Z,50.40
2018-05-12T20:22:15.880Z,50.30
2018-05-12T20:24:43.386Z,50.30
2018-05-12T20:27:10.870Z,50.60
2018-05-12T20:29:39.126Z,50.90
2018-05-12T20:32:06.605Z,50.80
2018-05-12T20:34:34.874Z,50.80
2018-05-12T20:37:03.130Z,50.70
2018-05-12T20:39:30.629Z,50.70
2018-05-12T20:41:58.878Z,50.50
2018-05-12T20:44:26.370Z,50.50
2018-05-12T20:46:53.854Z,50.60
2018-05-12T20:49:21.348Z,51.00
2018-05-12T20:51:48.872Z,51.30
2018-05-12T20:54:17.177Z,51.40
2018-05-12T20:56:44.661Z,52.00
2018-05-12T20:59:12.165Z,52.30
2018-05-12T21:01:39.649Z,52.70
2018-05-12T21:04:07.146Z,52.80
2018-05-12T21:06:35.398Z,53.00
2018-05-12T21:09:02.899Z,53.00
2018-05-12T21:11:31.157Z,53.60
2018-05-12T21:13:59.417Z,54.20
2018-05-12T21:16:26.904Z,54.10
2018-05-12T21:18:55.161Z,54.70
2018-05-12T21:21:22.639Z,54.70
2018-05-12T21:23:51.020Z,55.20
2018-05-12T21:26:18.409Z,55.20
2018-05-12T21:28:45.916Z,56.60
2018-05-12T21:31:13.397Z,57.60
2018-05-12T21:33:41.661Z,57.10
2018-05-12T21:36:09.926Z,57.20
2018-05-12T21:38:37.412Z,57.10
2018-05-12T21:41:05.673Z,57.20
2018-05-12T21:43:33.923Z,57.20
2018-05-12T21:46:01.547Z,57.10
2018-05-12T21:48:29.720Z,57.40
2018-05-12T21:50:57.224Z,58.00
2018-05-12T21:53:24.703Z,57.50
2018-05-12T21:55:53.008Z,57.50
2018-05-12T21:58:20.461Z,57.50
2018-05-12T22:00:47.963Z,58.00
2018-05-12T22:03:15.443Z,57.80
2018-05-12T22:05:42.933Z,57.70
2018-05-12T22:08:11.271Z,57.80
2018-05-12T22:10:38.676Z,57.70
2018-05-12T22:13:06.150Z,58.10
2018-05-12T22:15:33.641Z,58.40
2018-05-12T22:18:01.121Z,58.50
2018-05-12T22:20:29.386Z,59.20
2018-05-12T22:22:56.861Z,58.90
2018-05-12T22:25:24.361Z,59.20
2018-05-12T22:27:51.843Z,60.10
2018-05-12T22:30:19.320Z,59.90
2018-05-12T22:32:46.804Z,60.10
2018-05-12T22:35:15.049Z,60.50
2018-05-12T22:37:42.546Z,60.40
2018-05-12T22:40:10.792Z,61.20
2018-05-12T22:42:38.282Z,61.10
2018-05-12T22:45:06.530Z,61.80
2018-05-12T22:47:34.029Z,61.80
2018-05-12T22:50:02.264Z,62.20
2018-05-12T22:52:29.754Z,62.10
2018-05-12T22:54:57.998Z,62.90
2018-05-12T22:57:25.493Z,62.80
2018-05-12T22:59:53.741Z,65.00
2018-05-12T23:02:21.245Z,65.00
2018-05-12T23:04:48.721Z,65.80
2018-05-12T23:07:16.221Z,66.40
2018-05-12T23:09:43.705Z,67.20
2018-05-12T23:12:11.974Z,68.10
2018-05-12T23:14:40.211Z,68.20
2018-05-12T23:17:07.705Z,68.00
2018-05-12T23:19:35.185Z,68.10
2018-05-12T23:22:03.453Z,69.40
2018-05-12T23:24:31.705Z,69.30
2018-05-12T23:26:59.207Z,69.30
2018-05-12T23:29:26.704Z,69.70
2018-05-12T23:31:54.207Z,70.00
2018-05-12T23:34:22.453Z,71.20
2018-05-12T23:36:49.954Z,71.10
2018-05-12T23:39:17.435Z,71.50
2018-05-12T23:41:44.953Z,71.90
2018-05-12T23:44:13.200Z,72.40
2018-05-12T23:46:40.681Z,72.40
2018-05-12T23:49:08.295Z,73.00
2018-05-12T23:51:35.797Z,73.20
2018-05-12T23:54:03.288Z,74.10
2018-05-12T23:56:31.534Z,74.90
2018-05-12T23:58:59.029Z,74.80
